createdAt,value
2016-10-10T00:00:26.629Z,50.87
2016-10-10T00:01:07.283Z,50.68
2016-10-10T00:01:47.988Z,50.58
2016-10-10T00:02:28.659Z,50.87
2016-10-10T00:03:09.307Z,50.87
2016-10-10T00:03:50.010Z,50.87
2016-10-10T00:04:30.723Z,50.96
2016-10-10T00:05:11.415Z,50.96
2016-10-10T00:05:52.111Z,50.87
2016-10-10T00:06:32.778Z,50.87
2016-10-10T00:07:13.426Z,50.77
2016-10-10T00:07:54.137Z,50.68
2016-10-10T00:08:34.815Z,50.87
2016-10-10T00:09:15.514Z,50.99
2016-10-10T00:09:56.183Z,50.77
2016-10-10T00:10:36.921Z,50.87
2016-10-10T00:11:17.617Z,50.87
2016-10-10T00:11:58.315Z,50.77
2016-10-10T00:12:39.017Z,50.87
2016-10-10T00:13:19.702Z,50.8
2016-10-10T00:14:00.440Z,50.68
2016-10-10T00:14:41.143Z,50.89
2016-10-10T00:15:21.835Z,50.68
2016-10-10T00:16:02.528Z,50.77
2016-10-10T00:16:43.239Z,50.96
2016-10-10T00:17:23.909Z,50.96
2016-10-10T00:18:04.566Z,51.06
2016-10-10T00:18:45.276Z,51.06
2016-10-10T00:19:25.966Z,50.96
2016-10-10T00:20:06.655Z,50.77
2016-10-10T00:20:47.355Z,51.26
2016-10-10T00:21:28.113Z,51.26
2016-10-10T00:22:08.793Z,51.16
2016-10-10T00:22:49.464Z,51.06
2016-10-10T00:23:30.117Z,50.77
2016-10-10T00:24:10.807Z,50.87
2016-10-10T00:24:51.479Z,50.89
2016-10-10T00:25:32.216Z,50.87
2016-10-10T00:26:12.887Z,50.89
2016-10-10T00:26:53.565Z,50.77
2016-10-10T00:27:34.271Z,50.87
2016-10-10T00:28:14.983Z,50.77
2016-10-10T00:28:55.652Z,50.87
2016-10-10T00:29:36.338Z,50.99
2016-10-10T00:30:17.006Z,50.96
2016-10-10T00:30:57.705Z,50.96
2016-10-10T00:31:38.392Z,50.89
2016-10-10T00:32:19.090Z,50.96
2016-10-10T00:32:59.717Z,50.96
2016-10-10T00:33:40.372Z,50.58
2016-10-10T00:34:21.026Z,50.96
2016-10-10T00:35:01.697Z,51.06
2016-10-10T00:35:42.389Z,50.68
2016-10-10T00:36:23.091Z,50.96
2016-10-10T00:37:03.758Z,50.96
2016-10-10T00:37:44.431Z,50.77
2016-10-10T00:38:25.131Z,51.16
2016-10-10T00:39:05.785Z,50.96
2016-10-10T00:39:46.499Z,51.06
2016-10-10T00:40:27.178Z,51.26
2016-10-10T00:41:07.881Z,51.26
2016-10-10T00:41:48.583Z,51.26
2016-10-10T00:42:29.272Z,51.06
2016-10-10T00:43:09.939Z,51.16
2016-10-10T00:43:50.591Z,51.06
2016-10-10T00:44:31.278Z,51.06
2016-10-10T00:45:11.956Z,51.16
2016-10-10T00:45:52.653Z,50.87
2016-10-10T00:46:33.320Z,51.35
2016-10-10T00:47:14.008Z,51.16
2016-10-10T00:47:54.674Z,51.16
2016-10-10T00:48:35.377Z,51.16
2016-10-10T00:49:16.092Z,51.16
2016-10-10T00:49:56.776Z,50.96
2016-10-10T00:50:37.481Z,51.16
2016-10-10T00:51:18.165Z,51.26
2016-10-10T00:51:58.799Z,51.16
2016-10-10T00:52:39.441Z,51.26
2016-10-10T00:53:20.174Z,51.06
2016-10-10T00:54:00.907Z,51.16
2016-10-10T00:54:41.624Z,51.06
2016-10-10T00:55:22.298Z,51.26
2016-10-10T00:56:03.044Z,51.09
2016-10-10T00:56:43.752Z,51.06
2016-10-10T00:57:24.478Z,51.16
2016-10-10T00:58:05.147Z,51.16
2016-10-10T00:58:45.835Z,51.16
2016-10-10T00:59:26.508Z,51.16
2016-10-10T01:00:07.181Z,51.16
2016-10-10T01:00:47.855Z,51.06
2016-10-10T01:01:28.497Z,51.26
2016-10-10T01:02:09.209Z,51.26
2016-10-10T01:02:49.850Z,51.16
2016-10-10T01:03:30.552Z,51.16
2016-10-10T01:04:11.233Z,51.06
2016-10-10T01:04:51.935Z,51.06
2016-10-10T01:05:32.551Z,51.06
2016-10-10T01:06:13.249Z,51.16
2016-10-10T01:06:53.906Z,51.16
2016-10-10T01:07:34.579Z,51.16
2016-10-10T01:08:15.270Z,51.06
2016-10-10T01:08:56.008Z,51.16
2016-10-10T01:09:36.718Z,50.96
2016-10-10T01:10:17.425Z,51.16
2016-10-10T01:10:58.077Z,51.16
2016-10-10T01:11:38.763Z,51.06
2016-10-10T01:12:19.397Z,51.16
2016-10-10T01:13:00.073Z,51.35
2016-10-10T01:13:40.782Z,51.06
2016-10-10T01:14:21.439Z,51.35
2016-10-10T01:15:02.136Z,51.06
2016-10-10T01:15:42.827Z,51.16
2016-10-10T01:16:23.505Z,51.16
2016-10-10T01:17:04.190Z,51.16
2016-10-10T01:17:44.869Z,51.16
2016-10-10T01:18:25.572Z,51.16
2016-10-10T01:19:06.217Z,51.06
2016-10-10T01:19:46.949Z,51.16
2016-10-10T01:20:27.664Z,51.26
2016-10-10T01:21:08.331Z,51.16
2016-10-10T01:21:49.014Z,51.06
2016-10-10T01:22:29.704Z,51.06
2016-10-10T01:23:10.354Z,51.16
2016-10-10T01:23:51.035Z,51.26
2016-10-10T01:24:31.750Z,51.16
2016-10-10T01:25:12.410Z,50.96
2016-10-10T01:25:53.151Z,51.16
2016-10-10T01:26:33.811Z,51.16
2016-10-10T01:27:14.540Z,50.96
2016-10-10T01:27:55.181Z,51.16
2016-10-10T01:28:35.860Z,51.06
2016-10-10T01:29:16.541Z,51.06
2016-10-10T01:29:57.206Z,51.16
2016-10-10T01:30:37.889Z,51.26
2016-10-10T01:31:18.617Z,51.35
2016-10-10T01:31:59.239Z,51.06
2016-10-10T01:32:39.947Z,51.16
2016-10-10T01:33:20.668Z,51.26
2016-10-10T01:34:01.348Z,51.06
2016-10-10T01:34:42.036Z,50.96
2016-10-10T01:35:22.692Z,50.96
2016-10-10T01:36:03.371Z,51.16
2016-10-10T01:36:44.034Z,50.96
2016-10-10T01:37:24.698Z,51.06
2016-10-10T01:38:05.355Z,51.16
2016-10-10T01:38:46.046Z,50.96
2016-10-10T01:39:26.720Z,51.06
2016-10-10T01:40:07.374Z,51.16
2016-10-10T01:40:48.048Z,50.96
2016-10-10T01:41:28.720Z,51.06
2016-10-10T01:42:09.394Z,51.16
2016-10-10T01:42:50.075Z,51.06
2016-10-10T01:43:30.785Z,51.06
2016-10-10T01:44:11.467Z,51.06
2016-10-10T01:44:52.141Z,51.45
2016-10-10T01:45:32.821Z,50.87
2016-10-10T01:46:13.501Z,51.16
2016-10-10T01:46:54.207Z,50.87
2016-10-10T01:47:34.938Z,50.96
2016-10-10T01:48:15.667Z,50.96
2016-10-10T01:48:56.327Z,51.16
2016-10-10T01:49:37.018Z,51.16
2016-10-10T01:50:17.730Z,51.16
2016-10-10T01:50:58.365Z,51.06
2016-10-10T01:51:39.056Z,51.06
2016-10-10T01:52:19.732Z,51.16
2016-10-10T01:53:00.403Z,51.06
2016-10-10T01:53:41.122Z,51.16
2016-10-10T01:54:21.743Z,51.06
2016-10-10T01:55:02.455Z,51.06
2016-10-10T01:55:43.150Z,50.96
2016-10-10T01:56:23.804Z,51.45
2016-10-10T01:57:04.472Z,51.65
2016-10-10T01:57:45.215Z,51.45
2016-10-10T01:58:25.913Z,51.26
2016-10-10T01:59:06.640Z,51.45
2016-10-10T01:59:47.344Z,51.26
2016-10-10T02:00:28.018Z,51.35
2016-10-10T02:01:08.669Z,51.06
2016-10-10T02:01:49.401Z,51.65
2016-10-10T02:02:30.119Z,50.96
2016-10-10T02:03:10.829Z,51.16
2016-10-10T02:03:51.511Z,50.96
2016-10-10T02:04:32.219Z,51.16
2016-10-10T02:05:12.907Z,51.16
2016-10-10T02:05:53.556Z,50.96
2016-10-10T02:06:34.209Z,51.16
2016-10-10T02:07:14.894Z,51.16
2016-10-10T02:07:55.602Z,51.06
2016-10-10T02:08:36.257Z,51.06
2016-10-10T02:09:16.958Z,51.16
2016-10-10T02:09:57.641Z,51.16
2016-10-10T02:10:38.311Z,51.06
2016-10-10T02:11:18.952Z,51.26
2016-10-10T02:11:59.599Z,50.96
2016-10-10T02:12:40.265Z,51.16
2016-10-10T02:13:21.021Z,51.06
2016-10-10T02:14:01.703Z,51.26
2016-10-10T02:14:42.396Z,50.96
2016-10-10T02:15:23.072Z,51.16
2016-10-10T02:16:03.757Z,51.16
2016-10-10T02:16:44.443Z,51.35
2016-10-10T02:17:25.141Z,51.16
2016-10-10T02:18:05.841Z,51.16
2016-10-10T02:18:46.534Z,51.16
2016-10-10T02:19:27.239Z,51.16
2016-10-10T02:20:07.928Z,51.65
2016-10-10T02:20:48.635Z,51.55
2016-10-10T02:21:29.321Z,50.77
2016-10-10T02:22:10.032Z,51.65
2016-10-10T02:22:50.735Z,50.96
2016-10-10T02:23:31.388Z,51.65
2016-10-10T02:24:12.084Z,50.96
2016-10-10T02:24:52.754Z,50.96
2016-10-10T02:25:33.436Z,50.96
2016-10-10T02:26:14.155Z,51.55
2016-10-10T02:26:54.835Z,51.45
2016-10-10T02:27:35.520Z,50.77
2016-10-10T02:28:16.219Z,51.06
2016-10-10T02:28:56.893Z,51.45
2016-10-10T02:29:37.551Z,51.65
2016-10-10T02:30:18.266Z,51.06
2016-10-10T02:30:58.916Z,51.65
2016-10-10T02:31:39.620Z,51.45
2016-10-10T02:32:20.321Z,51.55
2016-10-10T02:33:00.948Z,51.55
2016-10-10T02:33:41.630Z,50.96
2016-10-10T02:34:22.283Z,51.45
2016-10-10T02:35:03.019Z,51.65
2016-10-10T02:35:43.689Z,51.16
2016-10-10T02:36:24.337Z,50.96
2016-10-10T02:37:05.027Z,51.16
2016-10-10T02:37:45.691Z,50.96
2016-10-10T02:38:26.384Z,50.96
2016-10-10T02:39:07.090Z,50.96
2016-10-10T02:39:47.764Z,51.16
2016-10-10T02:40:28.439Z,51.55
2016-10-10T02:41:09.110Z,50.96
2016-10-10T02:41:49.849Z,51.06
2016-10-10T02:42:30.569Z,51.35
2016-10-10T02:43:11.239Z,50.96
2016-10-10T02:43:51.869Z,51.16
2016-10-10T02:44:32.552Z,50.96
2016-10-10T02:45:13.326Z,51.06
2016-10-10T02:45:53.989Z,50.96
2016-10-10T02:46:34.694Z,51.06
2016-10-10T02:47:15.400Z,50.96
2016-10-10T02:47:56.073Z,51.06
2016-10-10T02:48:36.780Z,50.96
2016-10-10T02:49:17.496Z,51.65
2016-10-10T02:49:58.190Z,51.06
2016-10-10T02:50:38.828Z,50.96
2016-10-10T02:51:19.505Z,51.16
2016-10-10T02:52:00.244Z,51.35
2016-10-10T02:52:40.932Z,51.65
2016-10-10T02:53:21.629Z,51.16
2016-10-10T02:54:02.331Z,51.16
2016-10-10T02:54:43.039Z,51.06
2016-10-10T02:55:23.727Z,51.16
2016-10-10T02:56:04.415Z,50.77
2016-10-10T02:56:45.098Z,50.96
2016-10-10T02:57:25.805Z,51.16
2016-10-10T02:58:06.433Z,51.26
2016-10-10T02:58:47.074Z,50.96
2016-10-10T02:59:27.800Z,51.26
2016-10-10T03:00:08.491Z,51.06
2016-10-10T03:00:49.183Z,50.96
2016-10-10T03:01:29.860Z,51.16
2016-10-10T03:02:10.565Z,51.16
2016-10-10T03:02:51.265Z,51.06
2016-10-10T03:03:31.979Z,51.45
2016-10-10T03:04:12.660Z,51.45
2016-10-10T03:04:53.303Z,50.96
2016-10-10T03:05:34.018Z,50.96
2016-10-10T03:06:14.708Z,51.06
2016-10-10T03:06:55.420Z,50.96
2016-10-10T03:07:36.089Z,51.16
2016-10-10T03:08:16.784Z,51.65
2016-10-10T03:08:57.458Z,51.45
2016-10-10T03:09:38.109Z,50.96
2016-10-10T03:10:18.822Z,51.45
2016-10-10T03:10:59.554Z,51.06
2016-10-10T03:11:40.189Z,51.45
2016-10-10T03:12:20.866Z,51.35
2016-10-10T03:13:01.571Z,51.65
2016-10-10T03:13:42.299Z,51.45
2016-10-10T03:14:22.949Z,51.45
2016-10-10T03:15:03.607Z,51.45
2016-10-10T03:15:44.235Z,51.55
2016-10-10T03:16:24.935Z,51.55
2016-10-10T03:17:05.582Z,51.45
2016-10-10T03:17:46.271Z,51.55
2016-10-10T03:18:26.971Z,51.45
2016-10-10T03:19:07.695Z,51.65
2016-10-10T03:19:48.382Z,51.45
2016-10-10T03:20:29.074Z,50.96
2016-10-10T03:21:09.724Z,51.45
2016-10-10T03:21:50.403Z,51.45
2016-10-10T03:22:31.081Z,51.65
2016-10-10T03:23:11.706Z,51.35
2016-10-10T03:23:52.392Z,51.45
2016-10-10T03:24:33.070Z,51.45
2016-10-10T03:25:13.783Z,51.35
2016-10-10T03:25:54.496Z,51.45
2016-10-10T03:26:35.172Z,51.45
2016-10-10T03:27:15.847Z,50.77
2016-10-10T03:27:56.546Z,51.45
2016-10-10T03:28:37.249Z,51.45
2016-10-10T03:29:17.955Z,50.87
2016-10-10T03:29:58.637Z,51.45
2016-10-10T03:30:39.315Z,51.55
2016-10-10T03:31:19.982Z,51.45
2016-10-10T03:32:00.662Z,51.55
2016-10-10T03:32:41.350Z,51.35
2016-10-10T03:33:22.037Z,51.45
2016-10-10T03:34:02.792Z,51.35
2016-10-10T03:34:43.468Z,51.55
2016-10-10T03:35:24.124Z,51.45
2016-10-10T03:36:04.827Z,51.45
2016-10-10T03:36:45.514Z,51.55
2016-10-10T03:37:26.233Z,51.45
2016-10-10T03:38:06.957Z,51.45
2016-10-10T03:38:47.627Z,51.45
2016-10-10T03:39:28.296Z,51.45
2016-10-10T03:40:09.020Z,51.55
2016-10-10T03:40:49.755Z,50.96
2016-10-10T03:41:30.424Z,51.45
2016-10-10T03:42:11.119Z,51.45
2016-10-10T03:42:51.765Z,51.45
2016-10-10T03:43:32.461Z,51.45
2016-10-10T03:44:13.126Z,50.87
2016-10-10T03:44:53.790Z,51.55
2016-10-10T03:45:34.487Z,51.16
2016-10-10T03:46:15.175Z,51.55
2016-10-10T03:46:55.843Z,50.96
2016-10-10T03:47:36.545Z,50.96
2016-10-10T03:48:17.247Z,51.55
2016-10-10T03:48:57.923Z,51.45
2016-10-10T03:49:38.651Z,51.26
2016-10-10T03:50:19.341Z,51.65
2016-10-10T03:51:00.000Z,51.06
2016-10-10T03:51:40.705Z,51.65
2016-10-10T03:52:21.396Z,51.06
2016-10-10T03:53:02.072Z,51.55
2016-10-10T03:53:42.750Z,51.45
2016-10-10T03:54:23.425Z,51.65
2016-10-10T03:55:04.112Z,51.65
2016-10-10T03:55:44.804Z,51.06
2016-10-10T03:56:25.515Z,51.45
2016-10-10T03:57:06.165Z,51.55
2016-10-10T03:57:46.854Z,51.65
2016-10-10T03:58:27.557Z,50.77
2016-10-10T03:59:08.248Z,51.06
2016-10-10T03:59:48.949Z,50.96
2016-10-10T04:00:29.680Z,51.55
2016-10-10T04:01:10.350Z,51.45
2016-10-10T04:01:50.998Z,51.65
2016-10-10T04:02:31.688Z,51.45
2016-10-10T04:03:12.422Z,51.65
2016-10-10T04:03:53.121Z,51.55
2016-10-10T04:04:33.784Z,50.96
2016-10-10T04:05:14.497Z,51.06
2016-10-10T04:05:55.223Z,51.06
2016-10-10T04:06:35.883Z,51.65
2016-10-10T04:07:16.577Z,51.06
2016-10-10T04:07:57.294Z,50.96
2016-10-10T04:08:37.990Z,51.45
2016-10-10T04:09:18.644Z,51.06
2016-10-10T04:09:59.353Z,51.16
2016-10-10T04:10:40.005Z,51.16
2016-10-10T04:11:20.698Z,51.16
2016-10-10T04:12:01.412Z,51.16
2016-10-10T04:12:42.145Z,50.96
2016-10-10T04:13:22.859Z,50.96
2016-10-10T04:14:03.572Z,51.16
2016-10-10T04:14:44.267Z,50.96
2016-10-10T04:15:24.947Z,51.26
2016-10-10T04:16:05.586Z,51.06
2016-10-10T04:16:46.275Z,51.16
2016-10-10T04:17:26.958Z,51.06
2016-10-10T04:18:07.660Z,51.06
2016-10-10T04:18:48.324Z,51.06
2016-10-10T04:19:29.013Z,51.16
2016-10-10T04:20:09.671Z,50.96
2016-10-10T04:20:50.373Z,51.06
2016-10-10T04:21:31.065Z,51.16
2016-10-10T04:22:11.750Z,51.06
2016-10-10T04:22:52.452Z,51.16
2016-10-10T04:23:33.174Z,51.06
2016-10-10T04:24:13.852Z,50.96
2016-10-10T04:24:54.544Z,51.26
2016-10-10T04:25:35.247Z,51.16
2016-10-10T04:26:15.939Z,50.96
2016-10-10T04:26:56.619Z,51.16
2016-10-10T04:27:37.331Z,50.96
2016-10-10T04:28:17.945Z,51.16
2016-10-10T04:28:58.642Z,51.16
2016-10-10T04:29:39.367Z,51.06
2016-10-10T04:30:20.006Z,51.16
2016-10-10T04:31:00.737Z,51.06
2016-10-10T04:31:41.462Z,51.16
2016-10-10T04:32:22.148Z,51.16
2016-10-10T04:33:02.854Z,51.16
2016-10-10T04:33:43.546Z,51.45
2016-10-10T04:34:24.229Z,51.06
2016-10-10T04:35:04.916Z,51.06
2016-10-10T04:35:45.600Z,50.96
2016-10-10T04:36:26.294Z,51.06
2016-10-10T04:37:06.964Z,51.06
2016-10-10T04:37:47.639Z,51.06
2016-10-10T04:38:28.309Z,50.96
2016-10-10T04:39:09.007Z,50.96
2016-10-10T04:39:49.649Z,51.06
2016-10-10T04:40:30.336Z,51.16
2016-10-10T04:41:11.013Z,50.96
2016-10-10T04:41:51.683Z,51.26
2016-10-10T04:42:32.352Z,51.06
2016-10-10T04:43:12.990Z,51.16
2016-10-10T04:43:53.692Z,51.16
2016-10-10T04:44:34.411Z,51.06
2016-10-10T04:45:15.074Z,51.35
2016-10-10T04:45:55.789Z,51.26
2016-10-10T04:46:36.478Z,50.96
2016-10-10T04:47:17.127Z,50.96
2016-10-10T04:47:57.865Z,51.06
2016-10-10T04:48:38.551Z,51.26
2016-10-10T04:49:19.249Z,51.16
2016-10-10T04:49:59.961Z,50.96
2016-10-10T04:50:40.664Z,51.16
2016-10-10T04:51:21.344Z,50.96
2016-10-10T04:52:02.040Z,51.06
2016-10-10T04:52:42.729Z,51.06
2016-10-10T04:53:23.402Z,51.06
2016-10-10T04:54:04.145Z,51.26
2016-10-10T04:54:44.882Z,51.26
2016-10-10T04:55:25.574Z,51.06
2016-10-10T04:56:06.300Z,51.16
2016-10-10T04:56:47.002Z,51.06
2016-10-10T04:57:27.701Z,51.06
2016-10-10T04:58:08.399Z,51.16
2016-10-10T04:58:49.073Z,51.16
2016-10-10T04:59:29.800Z,51.06
2016-10-10T05:00:10.521Z,51.06
2016-10-10T05:00:51.234Z,51.06
2016-10-10T05:01:31.895Z,50.96
2016-10-10T05:02:12.598Z,51.06
2016-10-10T05:02:53.267Z,51.16
2016-10-10T05:03:33.999Z,51.06
2016-10-10T05:04:14.680Z,51.16
2016-10-10T05:04:55.371Z,50.96
2016-10-10T05:05:36.062Z,51.16
2016-10-10T05:06:16.766Z,51.35
2016-10-10T05:06:57.450Z,51.06
2016-10-10T05:07:38.181Z,50.96
2016-10-10T05:08:18.816Z,50.96
2016-10-10T05:08:59.490Z,50.77
2016-10-10T05:09:40.145Z,50.77
2016-10-10T05:10:20.828Z,51.06
2016-10-10T05:11:01.553Z,50.87
2016-10-10T05:11:42.279Z,51.06
2016-10-10T05:12:22.976Z,50.87
2016-10-10T05:13:03.635Z,50.77
2016-10-10T05:13:44.329Z,50.96
2016-10-10T05:14:24.991Z,50.87
2016-10-10T05:15:05.636Z,50.68
2016-10-10T05:15:46.333Z,50.87
2016-10-10T05:16:27.062Z,50.87
2016-10-10T05:17:07.711Z,50.68
2016-10-10T05:17:48.382Z,50.77
2016-10-10T05:18:29.099Z,50.77
2016-10-10T05:19:09.794Z,50.77
2016-10-10T05:19:50.522Z,50.87
2016-10-10T05:20:31.193Z,50.77
2016-10-10T05:21:11.893Z,50.68
2016-10-10T05:21:52.512Z,50.87
2016-10-10T05:22:33.200Z,50.68
2016-10-10T05:23:13.926Z,50.77
2016-10-10T05:23:54.583Z,50.58
2016-10-10T05:24:35.223Z,50.68
2016-10-10T05:25:15.911Z,50.58
2016-10-10T05:25:56.599Z,50.68
2016-10-10T05:26:37.244Z,50.58
2016-10-10T05:27:17.986Z,50.48
2016-10-10T05:27:58.653Z,50.68
2016-10-10T05:28:39.385Z,50.68
2016-10-10T05:29:20.054Z,50.68
2016-10-10T05:30:00.751Z,50.87
2016-10-10T05:30:41.454Z,50.58
2016-10-10T05:31:22.166Z,50.87
2016-10-10T05:32:02.833Z,50.77
2016-10-10T05:32:43.486Z,50.68
2016-10-10T05:33:24.220Z,50.77
2016-10-10T05:34:04.926Z,50.77
2016-10-10T05:34:45.572Z,50.96
2016-10-10T05:35:26.264Z,50.68
2016-10-10T05:36:06.949Z,50.77
2016-10-10T05:36:47.631Z,50.48
2016-10-10T05:37:28.367Z,50.58
2016-10-10T05:38:09.005Z,50.87
2016-10-10T05:38:49.693Z,50.87
2016-10-10T05:39:30.393Z,50.68
2016-10-10T05:40:11.069Z,50.87
2016-10-10T05:40:51.746Z,50.68
2016-10-10T05:41:32.443Z,50.87
2016-10-10T05:42:13.105Z,50.68
2016-10-10T05:42:53.793Z,50.68
2016-10-10T05:43:34.511Z,50.58
2016-10-10T05:44:15.223Z,50.48
2016-10-10T05:44:55.892Z,50.96
2016-10-10T05:45:36.592Z,50.58
2016-10-10T05:46:17.256Z,50.68
2016-10-10T05:46:57.933Z,50.68
2016-10-10T05:47:38.611Z,50.58
2016-10-10T05:48:19.302Z,50.77
2016-10-10T05:49:00.025Z,50.58
2016-10-10T05:49:40.682Z,50.68
2016-10-10T05:50:21.355Z,50.58
2016-10-10T05:51:02.075Z,50.68
2016-10-10T05:51:42.754Z,50.58
2016-10-10T05:52:23.441Z,50.68
2016-10-10T05:53:04.132Z,50.68
2016-10-10T05:53:44.825Z,50.48
2016-10-10T05:54:25.484Z,50.29
2016-10-10T05:55:06.190Z,50.58
2016-10-10T05:55:46.890Z,50.68
2016-10-10T05:56:27.598Z,50.29
2016-10-10T05:57:08.312Z,50.68
2016-10-10T05:59:26.928Z,50.77
2016-10-10T06:00:07.631Z,50.58
2016-10-10T06:00:48.291Z,50.48
2016-10-10T06:01:28.936Z,50.58
2016-10-10T06:02:09.654Z,50.68
2016-10-10T06:02:50.316Z,50.87
2016-10-10T06:03:31.069Z,50.58
2016-10-10T06:04:11.791Z,50.77
2016-10-10T06:04:52.495Z,50.77
2016-10-10T06:05:33.142Z,50.68
2016-10-10T06:06:13.799Z,50.58
2016-10-10T06:06:54.555Z,50.68
2016-10-10T06:07:35.238Z,50.58
2016-10-10T06:08:15.911Z,50.68
2016-10-10T06:08:56.631Z,50.87
2016-10-10T06:09:37.355Z,50.96
2016-10-10T06:10:18.081Z,50.68
2016-10-10T06:10:58.815Z,50.68
2016-10-10T06:11:39.496Z,50.68
2016-10-10T06:12:20.183Z,50.68
2016-10-10T06:13:00.850Z,50.77
2016-10-10T06:13:41.580Z,50.68
2016-10-10T06:14:22.268Z,50.48
2016-10-10T06:15:02.967Z,50.68
2016-10-10T06:15:43.668Z,50.68
2016-10-10T06:16:24.393Z,50.68
2016-10-10T06:17:05.076Z,50.68
2016-10-10T06:17:45.757Z,50.58
2016-10-10T06:18:26.439Z,50.96
2016-10-10T06:19:07.131Z,50.68
2016-10-10T06:19:47.810Z,50.58
2016-10-10T06:20:28.468Z,50.68
2016-10-10T06:21:09.154Z,50.77
2016-10-10T06:21:49.842Z,50.77
2016-10-10T06:22:30.522Z,50.68
2016-10-10T06:23:11.200Z,50.58
2016-10-10T06:23:51.916Z,50.77
2016-10-10T06:24:32.621Z,51.06
2016-10-10T06:25:13.281Z,50.87
2016-10-10T06:25:54.016Z,50.87
2016-10-10T06:26:34.710Z,50.87
2016-10-10T06:27:15.446Z,50.96
2016-10-10T06:27:56.250Z,50.87
2016-10-10T06:28:36.964Z,50.58
2016-10-10T06:29:17.694Z,50.96
2016-10-10T06:29:58.441Z,50.77
2016-10-10T06:30:39.093Z,50.58
2016-10-10T06:31:19.765Z,50.77
2016-10-10T06:32:00.486Z,50.77
2016-10-10T06:32:41.201Z,50.77
2016-10-10T06:33:21.896Z,50.77
2016-10-10T06:34:02.617Z,50.77
2016-10-10T06:34:43.296Z,50.68
2016-10-10T06:35:24.016Z,50.58
2016-10-10T06:36:04.737Z,50.68
2016-10-10T06:36:45.484Z,50.58
2016-10-10T06:37:26.178Z,50.77
2016-10-10T06:38:06.847Z,51.06
2016-10-10T06:38:47.547Z,50.58
2016-10-10T06:39:28.254Z,50.58
2016-10-10T06:40:08.959Z,50.77
2016-10-10T06:40:49.643Z,50.48
2016-10-10T06:41:30.321Z,50.96
2016-10-10T06:42:10.990Z,50.58
2016-10-10T06:42:51.688Z,50.48
2016-10-10T06:43:32.345Z,50.87
2016-10-10T06:44:13.029Z,50.77
2016-10-10T06:44:53.740Z,50.48
2016-10-10T06:45:34.463Z,50.87
2016-10-10T06:46:15.137Z,50.58
2016-10-10T06:46:55.848Z,50.96
2016-10-10T06:47:36.553Z,50.68
2016-10-10T06:48:17.227Z,50.48
2016-10-10T06:48:57.863Z,50.87
2016-10-10T06:49:38.540Z,50.09
2016-10-10T06:50:19.262Z,49.8
2016-10-10T06:51:00.014Z,47.66
2016-10-10T06:51:40.692Z,48.54
2016-10-10T06:52:21.446Z,49.02
2016-10-10T06:53:02.169Z,49.41
2016-10-10T06:53:42.847Z,48.93
2016-10-10T06:54:23.578Z,48.8
2016-10-10T06:55:04.300Z,48.8
2016-10-10T06:55:45.086Z,49.1
2016-10-10T06:56:26.709Z,48.8
2016-10-10T06:57:07.412Z,48.61
2016-10-10T06:57:48.169Z,48.8
2016-10-10T06:58:28.877Z,48.22
2016-10-10T06:59:09.599Z,48.13
2016-10-10T06:59:50.355Z,48.03
2016-10-10T07:00:31.080Z,48.13
2016-10-10T07:01:11.806Z,48.03
2016-10-10T07:01:52.543Z,48.03
2016-10-10T07:02:33.255Z,47.45
2016-10-10T07:03:14.011Z,47.81
2016-10-10T07:03:54.738Z,46.96
2016-10-10T07:04:35.504Z,46.94
2016-10-10T07:05:16.283Z,46.77
2016-10-10T07:05:57.058Z,46.36
2016-10-10T07:06:37.794Z,46.45
2016-10-10T07:07:18.567Z,46.26
2016-10-10T07:07:59.280Z,45.97
2016-10-10T07:08:40.037Z,46.75
2016-10-10T07:09:20.786Z,46.36
2016-10-10T07:10:01.519Z,45.78
2016-10-10T07:10:42.281Z,45.78
2016-10-10T07:11:22.999Z,45.78
2016-10-10T07:12:03.731Z,46.07
2016-10-10T07:12:44.513Z,45.87
2016-10-10T07:13:25.272Z,45.87
2016-10-10T07:14:06.050Z,45.39
2016-10-10T07:14:46.766Z,45.58
2016-10-10T07:15:27.515Z,45.2
2016-10-10T07:16:08.289Z,45.29
2016-10-10T07:16:49.024Z,45.48
2016-10-10T07:17:29.799Z,44.61
2016-10-10T07:18:10.569Z,44.51
2016-10-10T07:18:51.404Z,44.32
2016-10-10T07:19:32.121Z,44.23
2016-10-10T07:20:12.909Z,44.32
2016-10-10T07:20:53.665Z,44.23
2016-10-10T07:21:34.453Z,44.32
2016-10-10T07:22:15.142Z,44.13
2016-10-10T07:22:55.917Z,43.84
2016-10-10T07:23:36.669Z,43.84
2016-10-10T07:24:17.426Z,43.93
2016-10-10T07:24:58.184Z,43.84
2016-10-10T07:25:38.989Z,43.45
2016-10-10T07:26:19.787Z,43.45
2016-10-10T07:27:00.556Z,42.96
2016-10-10T07:27:41.332Z,43.06
2016-10-10T07:28:22.097Z,42.38
2016-10-10T07:29:02.876Z,42.96
2016-10-10T07:29:43.632Z,42.48
2016-10-10T07:30:24.380Z,42.29
2016-10-10T07:31:05.136Z,42.09
2016-10-10T07:31:46.688Z,42.19
2016-10-10T07:32:27.460Z,42.19
2016-10-10T07:33:08.239Z,42.09
2016-10-10T07:33:49.013Z,42.19
2016-10-10T07:34:29.762Z,42.48
2016-10-10T07:35:10.541Z,42.38
2016-10-10T07:35:51.273Z,42.38
2016-10-10T07:36:32.075Z,42.19
2016-10-10T07:37:12.853Z,42.48
2016-10-10T07:37:53.644Z,42.48
2016-10-10T07:38:34.408Z,42.38
2016-10-10T07:39:15.184Z,42.48
2016-10-10T07:39:55.938Z,42.19
2016-10-10T07:40:36.776Z,42.19
2016-10-10T07:41:17.627Z,42.48
2016-10-10T07:41:58.382Z,42.19
2016-10-10T07:42:39.139Z,42.29
2016-10-10T07:43:20.810Z,42.09
2016-10-10T07:44:01.622Z,42.09
2016-10-10T07:44:42.355Z,41.51
2016-10-10T07:45:23.159Z,41.51
2016-10-10T07:46:03.977Z,41.8
2016-10-10T07:46:44.755Z,41.12
2016-10-10T07:47:25.563Z,40.92
2016-10-10T07:48:06.381Z,40.92
2016-10-10T07:48:47.165Z,40.83
2016-10-10T07:49:27.947Z,40.54
2016-10-10T07:50:08.716Z,40.54
2016-10-10T07:50:49.530Z,40.54
2016-10-10T07:51:30.269Z,40.44
2016-10-10T07:52:11.076Z,40.15
2016-10-10T07:52:51.877Z,40.34
2016-10-10T07:53:32.632Z,40.05
2016-10-10T07:54:13.470Z,40.25
2016-10-10T07:54:54.264Z,39.76
2016-10-10T07:55:35.048Z,40.05
2016-10-10T07:56:15.804Z,40.25
2016-10-10T07:56:56.580Z,39.86
2016-10-10T07:57:37.352Z,39.95
2016-10-10T07:58:18.083Z,40.05
2016-10-10T07:58:58.845Z,39.76
2016-10-10T07:59:39.604Z,39.76
2016-10-10T08:00:21.012Z,39.86
2016-10-10T08:01:01.131Z,38.99
2016-10-10T08:01:41.862Z,39.47
2016-10-10T08:02:22.616Z,39.18
2016-10-10T08:03:03.386Z,38.79
2016-10-10T08:03:44.184Z,38.6
2016-10-10T08:04:24.995Z,38.7
2016-10-10T08:05:05.768Z,38.79
2016-10-10T08:05:46.577Z,38.6
2016-10-10T08:06:27.346Z,38.31
2016-10-10T08:07:08.072Z,38.12
2016-10-10T08:07:48.856Z,38.02
2016-10-10T08:08:29.655Z,37.92
2016-10-10T08:09:10.454Z,37.82
2016-10-10T08:09:51.237Z,37.63
2016-10-10T08:10:31.994Z,37.73
2016-10-10T08:11:12.735Z,37.82
2016-10-10T08:11:53.520Z,37.63
2016-10-10T08:12:34.293Z,37.53
2016-10-10T08:13:15.038Z,37.24
2016-10-10T08:13:55.857Z,37.05
2016-10-10T08:14:36.684Z,36.95
2016-10-10T08:15:17.485Z,36.95
2016-10-10T08:15:58.240Z,37.34
2016-10-10T08:16:39.037Z,36.95
2016-10-10T08:17:20.729Z,37.15
2016-10-10T08:18:01.476Z,36.76
2016-10-10T08:18:42.232Z,36.56
2016-10-10T08:19:23.032Z,36.66
2016-10-10T08:20:03.855Z,36.56
2016-10-10T08:20:44.602Z,36.56
2016-10-10T08:21:25.382Z,36.66
2016-10-10T08:22:06.144Z,36.56
2016-10-10T08:22:46.940Z,36.66
2016-10-10T08:23:27.694Z,36.76
2016-10-10T08:24:08.431Z,36.56
2016-10-10T08:24:49.255Z,36.76
2016-10-10T08:25:29.984Z,36.56
2016-10-10T08:26:10.739Z,36.46
2016-10-10T08:26:51.539Z,36.66
2016-10-10T08:27:32.297Z,36.27
2016-10-10T08:28:13.059Z,36.76
2016-10-10T08:28:53.794Z,36.66
2016-10-10T08:29:34.602Z,36.56
2016-10-10T08:30:15.356Z,36.46
2016-10-10T08:30:56.209Z,36.66
2016-10-10T08:31:37.007Z,36.66
2016-10-10T08:32:17.806Z,36.56
2016-10-10T08:32:58.642Z,36.66
2016-10-10T08:33:39.440Z,36.66
2016-10-10T08:34:20.213Z,36.95
2016-10-10T08:35:00.979Z,36.66
2016-10-10T08:35:41.695Z,36.58
2016-10-10T08:36:22.511Z,36.66
2016-10-10T08:37:03.298Z,36.66
2016-10-10T08:37:44.025Z,36.66
2016-10-10T08:38:24.804Z,36.38
2016-10-10T08:39:05.599Z,36.27
2016-10-10T08:39:47.106Z,36.38
2016-10-10T08:40:27.893Z,36.27
2016-10-10T08:41:08.666Z,36.36
2016-10-10T08:41:49.437Z,36.36
2016-10-10T08:42:30.158Z,36.66
2016-10-10T08:43:10.997Z,36.68
2016-10-10T08:43:51.828Z,37.05
2016-10-10T08:44:33.291Z,37.05
2016-10-10T08:45:14.014Z,37.43
2016-10-10T08:47:32.694Z,37.07
2016-10-10T08:48:13.512Z,37.26